createdAt,value
2023-05-05T00:00:59.032Z,100875.66
2023-05-05T00:03:11.704Z,100870.79
2023-05-05T00:05:25.427Z,100873.58
2023-05-05T00:07:38.015Z,100870.27
2023-05-05T00:09:50.612Z,100874.28
2023-05-05T00:12:03.178Z,100873.20
2023-05-05T00:14:16.391Z,100871.13
2023-05-05T00:16:28.986Z,100871.45
2023-05-05T00:18:41.609Z,100868.63
2023-05-05T00:20:54.129Z,100868.27
2023-05-05T00:23:06.861Z,100867.73
2023-05-05T00:25:19.449Z,100868.92
2023-05-05T00:27:32.084Z,100865.27
2023-05-05T00:29:44.784Z,100861.29
2023-05-05T00:31:57.395Z,100861.45
2023-05-05T00:34:09.929Z,100859.17
2023-05-05T00:36:22.803Z,100856.57
2023-05-05T00:38:35.522Z,100847.58
2023-05-05T00:40:48.048Z,100855.52
2023-05-05T00:43:00.653Z,100850.54
2023-05-05T00:45:15.528Z,100852.52
2023-05-05T00:47:28.146Z,100852.39
2023-05-05T00:49:40.953Z,100854.44
2023-05-05T00:51:53.490Z,100850.26
2023-05-05T00:54:06.096Z,100850.54
2023-05-05T00:56:19.787Z,100847.94
2023-05-05T00:58:32.421Z,100847.77
2023-05-05T01:00:45.296Z,100846.75
2023-05-05T01:02:58.065Z,100841.89
2023-05-05T01:05:13.240Z,100840.52
2023-05-05T01:07:59.838Z,100839.90
2023-05-05T01:10:50.962Z,100840.20
2023-05-05T01:13:09.450Z,100841.86
2023-05-05T01:15:40.558Z,100839.95
2023-05-05T01:18:00.696Z,100841.35
2023-05-05T01:20:35.667Z,100841.91
2023-05-05T01:22:57.045Z,100838.89
2023-05-05T01:25:26.909Z,100837.96
2023-05-05T01:28:10.206Z,100832.95
2023-05-05T01:30:41.040Z,100826.66
2023-05-05T01:33:00.725Z,100823.95
2023-05-05T01:35:22.276Z,100829.46
2023-05-05T01:37:47.754Z,100825.79
2023-05-05T01:40:06.694Z,100826.08
2023-05-05T01:42:22.315Z,100826.20
2023-05-05T01:44:37.021Z,100820.81
2023-05-05T01:46:52.151Z,100821.88
2023-05-05T01:49:05.847Z,100818.37
2023-05-05T01:51:22.184Z,100820.98
2023-05-05T01:53:36.289Z,100823.17
2023-05-05T01:55:50.126Z,100820.77
2023-05-05T01:58:05.998Z,100815.85
2023-05-05T02:00:22.899Z,100820.30
2023-05-05T02:02:37.748Z,100820.63
2023-05-05T02:04:52.632Z,100823.03
2023-05-05T02:07:07.887Z,100821.98
2023-05-05T02:09:21.573Z,100820.42
2023-05-05T02:11:34.742Z,100817.36
2023-05-05T02:13:48.606Z,100818.45
2023-05-05T02:16:04.525Z,100816.44
2023-05-05T02:18:18.559Z,100816.44
2023-05-05T02:20:31.748Z,100812.33
2023-05-05T02:22:44.654Z,100814.46
2023-05-05T02:24:57.300Z,100810.86
2023-05-05T02:27:11.426Z,100810.84
2023-05-05T02:29:37.054Z,100808.29
2023-05-05T02:31:52.808Z,100811.79
2023-05-05T02:34:07.257Z,100809.88
2023-05-05T02:36:22.899Z,100806.79
2023-05-05T02:38:41.563Z,100807.15
2023-05-05T02:40:56.352Z,100803.53
2023-05-05T02:43:11.373Z,100801.45
2023-05-05T02:45:26.700Z,100799.37
2023-05-05T02:47:39.359Z,100803.33
2023-05-05T02:49:52.030Z,100805.23
2023-05-05T02:52:04.791Z,100802.13
2023-05-05T02:54:17.516Z,100805.09
2023-05-05T02:56:41.153Z,100806.87
2023-05-05T02:59:08.782Z,100810.52
2023-05-05T03:01:51.427Z,100814.80
2023-05-05T03:04:17.612Z,100817.89
2023-05-05T03:06:35.595Z,100819.77
2023-05-05T03:09:13.170Z,100821.48
2023-05-05T03:12:00.854Z,100822.52
2023-05-05T03:14:18.256Z,100824.82
2023-05-05T03:16:34.842Z,100827.05
2023-05-05T03:18:49.762Z,100828.42
2023-05-05T03:21:08.450Z,100826.17
2023-05-05T03:23:22.679Z,100830.64
2023-05-05T03:25:44.099Z,100832.03
2023-05-05T03:27:56.782Z,100832.09
2023-05-05T03:30:10.219Z,100829.15
2023-05-05T03:32:24.115Z,100830.30
2023-05-05T03:34:37.741Z,100832.69
2023-05-05T03:36:50.355Z,100831.31
2023-05-05T03:39:03.605Z,100831.19
2023-05-05T03:41:16.272Z,100833.19
2023-05-05T03:43:29.026Z,100829.07
2023-05-05T03:45:41.591Z,100828.05
2023-05-05T03:47:54.200Z,100827.69
2023-05-05T03:50:07.603Z,100828.02
2023-05-05T03:52:20.379Z,100831.48
2023-05-05T03:54:32.923Z,100830.42
2023-05-05T03:56:45.453Z,100827.96
2023-05-05T03:58:58.169Z,100828.74
2023-05-05T04:01:10.807Z,100827.11
2023-05-05T04:03:23.564Z,100831.34
2023-05-05T04:05:36.444Z,100830.91
2023-05-05T04:07:48.939Z,100835.02
2023-05-05T04:10:01.927Z,100838.45
2023-05-05T04:12:14.483Z,100841.16
2023-05-05T04:14:27.086Z,100836.93
2023-05-05T04:16:39.874Z,100837.69
2023-05-05T04:18:52.413Z,100835.19
2023-05-05T04:21:04.972Z,100836.23
2023-05-05T04:23:17.522Z,100830.10
2023-05-05T04:25:30.097Z,100835.27
2023-05-05T04:27:42.762Z,100834.50
2023-05-05T04:29:55.791Z,100833.94
2023-05-05T04:32:08.360Z,100836.06
2023-05-05T04:34:20.992Z,100839.21
2023-05-05T04:36:33.846Z,100838.77
2023-05-05T04:38:46.432Z,100843.54
2023-05-05T04:40:59.916Z,100844.08
2023-05-05T04:43:12.403Z,100849.02
2023-05-05T04:45:25.067Z,100851.73
2023-05-05T04:47:39.253Z,100853.20
2023-05-05T04:49:54.646Z,100856.52
2023-05-05T04:52:07.210Z,100857.30
2023-05-05T04:54:19.778Z,100855.91
2023-05-05T04:56:32.401Z,100855.91
2023-05-05T04:58:44.943Z,100851.36
2023-05-05T05:00:57.546Z,100853.17
2023-05-05T05:03:10.705Z,100852.38
2023-05-05T05:05:23.421Z,100853.64
2023-05-05T05:07:35.994Z,100851.94
2023-05-05T05:09:48.570Z,100854.39
2023-05-05T05:12:05.854Z,100857.20
2023-05-05T05:14:18.395Z,100859.98
2023-05-05T05:16:31.043Z,100855.23
2023-05-05T05:18:43.593Z,100853.09
2023-05-05T05:20:56.363Z,100850.70
2023-05-05T05:23:08.911Z,100851.41
2023-05-05T05:25:21.423Z,100852.09
2023-05-05T05:27:34.031Z,100855.41
2023-05-05T05:29:46.591Z,100862.30
2023-05-05T05:32:00.638Z,100863.06
2023-05-05T05:34:13.238Z,100865.17
2023-05-05T05:36:26.247Z,100863.65
2023-05-05T05:38:38.770Z,100865.71
2023-05-05T05:40:51.328Z,100867.27
2023-05-05T05:43:04.116Z,100870.59
2023-05-05T05:45:16.717Z,100873.71
2023-05-05T05:47:29.257Z,100877.46
2023-05-05T05:49:41.781Z,100877.79
2023-05-05T05:51:54.286Z,100881.14
2023-05-05T05:54:06.831Z,100877.16
2023-05-05T05:56:19.365Z,100877.96
2023-05-05T05:58:31.918Z,100879.92
2023-05-05T06:00:44.496Z,100880.44
2023-05-05T06:02:57.117Z,100881.77
2023-05-05T06:05:10.430Z,100880.47
2023-05-05T06:07:22.974Z,100880.30
2023-05-05T06:09:35.624Z,100881.85
2023-05-05T06:11:48.306Z,100880.18
2023-05-05T06:14:00.900Z,100882.90
2023-05-05T06:16:13.736Z,100884.02
2023-05-05T06:18:26.466Z,100883.73
2023-05-05T06:20:39.241Z,100883.20
2023-05-05T06:22:51.837Z,100886.73
2023-05-05T06:25:04.597Z,100882.26
2023-05-05T06:27:17.205Z,100878.10
2023-05-05T06:29:29.833Z,100877.52
2023-05-05T06:31:42.428Z,100878.20
2023-05-05T06:33:55.074Z,100879.06
2023-05-05T06:36:07.888Z,100879.10
2023-05-05T06:38:20.629Z,100879.05
2023-05-05T06:40:33.183Z,100879.73
2023-05-05T06:42:45.759Z,100877.27
2023-05-05T06:44:58.262Z,100875.44
2023-05-05T06:47:10.784Z,100877.31
2023-05-05T06:49:23.366Z,100877.96
2023-05-05T06:51:36.039Z,100878.57
2023-05-05T06:53:48.570Z,100879.67
2023-05-05T06:56:01.086Z,100879.02
2023-05-05T06:58:13.789Z,100880.17
2023-05-05T07:00:26.479Z,100875.30
2023-05-05T07:02:39.807Z,100872.24
2023-05-05T07:04:52.432Z,100868.64
2023-05-05T07:07:04.930Z,100867.52
2023-05-05T07:09:18.514Z,100866.17
2023-05-05T07:11:31.090Z,100867.11
2023-05-05T07:13:43.590Z,100868.30
2023-05-05T07:15:56.105Z,100872.81
2023-05-05T07:18:08.667Z,100872.23
2023-05-05T07:20:21.218Z,100871.02
2023-05-05T07:22:33.894Z,100868.90
2023-05-05T07:24:46.463Z,100866.77
2023-05-05T07:26:59.211Z,100869.00
2023-05-05T07:29:11.968Z,100866.42
2023-05-05T07:31:25.736Z,100865.33
2023-05-05T07:33:38.405Z,100862.58
2023-05-05T07:35:51.075Z,100860.52
2023-05-05T07:38:03.860Z,100859.53
2023-05-05T07:40:16.462Z,100860.45
2023-05-05T07:42:29.026Z,100859.34
2023-05-05T07:44:41.635Z,100855.08
2023-05-05T07:46:54.197Z,100853.42
2023-05-05T07:49:06.740Z,100851.71
2023-05-05T07:51:19.246Z,100848.55
2023-05-05T07:53:31.951Z,100847.54
2023-05-05T07:55:44.596Z,100851.42
2023-05-05T07:57:57.135Z,100851.38
2023-05-05T08:00:10.769Z,100852.05
2023-05-05T08:02:23.723Z,100846.38
2023-05-05T08:04:36.485Z,100848.72
2023-05-05T08:06:49.065Z,100844.30
2023-05-05T08:09:02.136Z,100844.75
2023-05-05T08:11:17.420Z,100844.29
2023-05-05T08:13:32.637Z,100840.94
2023-05-05T08:15:45.372Z,100846.55
2023-05-05T08:17:58.135Z,100846.24
2023-05-05T08:20:10.982Z,100847.32
2023-05-05T08:22:23.539Z,100843.72
2023-05-05T08:24:36.135Z,100847.05
2023-05-05T08:26:49.222Z,100848.22
2023-05-05T08:29:02.230Z,100841.98
2023-05-05T08:31:15.836Z,100841.52
2023-05-05T08:33:28.480Z,100843.09
2023-05-05T08:35:41.735Z,100837.29
2023-05-05T08:37:55.953Z,100838.44
2023-05-05T08:40:14.039Z,100835.42
2023-05-05T08:42:37.129Z,100840.98
2023-05-05T08:44:51.205Z,100843.61
2023-05-05T08:47:05.545Z,100839.88
2023-05-05T08:49:19.239Z,100839.72
2023-05-05T08:51:41.367Z,100838.05
2023-05-05T08:53:53.805Z,100833.71
2023-05-05T08:56:07.771Z,100829.46
2023-05-05T08:58:22.830Z,100826.61
2023-05-05T09:00:36.251Z,100823.40
2023-05-05T09:02:49.612Z,100822.39
2023-05-05T09:05:05.310Z,100828.55
2023-05-05T09:07:18.651Z,100830.97
2023-05-05T09:09:31.517Z,100825.80
2023-05-05T09:11:45.399Z,100825.37
2023-05-05T09:13:58.016Z,100825.68
2023-05-05T09:16:10.758Z,100827.21
2023-05-05T09:18:23.462Z,100822.45
2023-05-05T09:20:37.412Z,100818.30
2023-05-05T09:22:49.933Z,100821.06
2023-05-05T09:25:03.142Z,100820.96
2023-05-05T09:27:23.285Z,100818.25
2023-05-05T09:29:36.425Z,100817.91
2023-05-05T09:32:08.316Z,100816.46
2023-05-05T09:34:21.232Z,100814.48
2023-05-05T09:36:47.977Z,100813.52
2023-05-05T09:39:06.073Z,100806.94
2023-05-05T09:41:36.700Z,100806.20
2023-05-05T09:44:00.914Z,100806.88
2023-05-05T09:46:14.198Z,100807.23
2023-05-05T09:48:31.791Z,100804.75
2023-05-05T09:50:44.789Z,100808.27
2023-05-05T09:53:02.457Z,100805.95
2023-05-05T09:55:18.177Z,100811.96
2023-05-05T09:57:33.225Z,100813.55
2023-05-05T09:59:57.440Z,100815.65
2023-05-05T10:02:14.935Z,100811.47
2023-05-05T10:04:29.964Z,100811.58
2023-05-05T10:06:48.610Z,100811.39
2023-05-05T10:09:01.854Z,100810.94
2023-05-05T10:11:14.436Z,100803.79
2023-05-05T10:13:28.057Z,100803.87
2023-05-05T10:15:44.755Z,100805.55
2023-05-05T10:18:07.804Z,100805.27
2023-05-05T10:20:21.841Z,100800.13
2023-05-05T10:22:35.276Z,100804.58
2023-05-05T10:24:56.549Z,100803.02
2023-05-05T10:27:16.544Z,100800.18
2023-05-05T10:29:38.956Z,100797.49
2023-05-05T10:31:54.103Z,100799.61
2023-05-05T10:34:10.525Z,100798.84
2023-05-05T10:36:25.021Z,100799.23
2023-05-05T10:38:38.157Z,100798.19
2023-05-05T10:40:51.668Z,100793.19
2023-05-05T10:43:04.853Z,100791.42
2023-05-05T10:45:17.690Z,100786.30
2023-05-05T10:47:31.785Z,100778.91
2023-05-05T10:49:55.741Z,100783.58
2023-05-05T10:52:25.818Z,100782.77
2023-05-05T10:54:50.021Z,100783.45
2023-05-05T10:57:05.121Z,100777.48
2023-05-05T10:59:35.634Z,100775.50
2023-05-05T11:01:50.686Z,100780.27
2023-05-05T11:04:23.782Z,100781.33
2023-05-05T11:06:36.357Z,100777.40
2023-05-05T11:08:48.875Z,100773.67
2023-05-05T11:11:02.403Z,100774.92
2023-05-05T11:13:15.019Z,100771.17
2023-05-05T11:15:27.801Z,100770.16
2023-05-05T11:17:47.233Z,100766.73
2023-05-05T11:19:59.779Z,100763.20
2023-05-05T11:22:12.549Z,100754.88
2023-05-05T11:24:31.322Z,100753.40
2023-05-05T11:26:54.010Z,100751.39
2023-05-05T11:29:06.675Z,100749.98
2023-05-05T11:31:19.928Z,100743.21
2023-05-05T11:33:37.652Z,100738.98
2023-05-05T11:35:57.781Z,100742.21
2023-05-05T11:38:10.477Z,100737.73
2023-05-05T11:40:30.406Z,100737.14
2023-05-05T11:42:42.999Z,100740.98
2023-05-05T11:44:56.107Z,100740.10
2023-05-05T11:47:08.637Z,100736.44
2023-05-05T11:49:28.944Z,100744.04
2023-05-05T11:51:41.675Z,100740.65
2023-05-05T11:53:54.243Z,100732.32
2023-05-05T11:56:08.498Z,100726.56
2023-05-05T11:58:21.065Z,100731.08
2023-05-05T12:00:34.118Z,100729.89
2023-05-05T12:02:46.952Z,100732.31
2023-05-05T12:05:00.292Z,100735.95
2023-05-05T12:07:20.773Z,100737.16
2023-05-05T12:09:33.344Z,100732.14
2023-05-05T12:11:56.477Z,100726.30
2023-05-05T12:14:12.318Z,100726.04
2023-05-05T12:16:24.937Z,100721.98
2023-05-05T12:18:37.516Z,100717.04
2023-05-05T12:20:51.151Z,100717.89
2023-05-05T12:23:03.912Z,100709.92
2023-05-05T12:25:17.031Z,100705.92
2023-05-05T12:27:29.765Z,100708.06
2023-05-05T12:29:42.278Z,100711.02
2023-05-05T12:31:55.006Z,100710.19
2023-05-05T12:34:11.527Z,100710.59
2023-05-05T12:36:24.316Z,100722.05
2023-05-05T12:38:36.878Z,100716.64
2023-05-05T12:40:51.808Z,100714.55
2023-05-05T12:43:04.390Z,100714.25
2023-05-05T12:45:19.767Z,100711.48
2023-05-05T12:47:33.262Z,100708.30
2023-05-05T12:49:51.045Z,100709.69
2023-05-05T12:52:03.670Z,100711.44
2023-05-05T12:54:16.525Z,100712.92
2023-05-05T12:56:42.587Z,100711.67
2023-05-05T12:58:55.611Z,100709.09
2023-05-05T13:01:09.071Z,100701.19
2023-05-05T13:03:21.781Z,100694.70
2023-05-05T13:05:38.058Z,100688.23
2023-05-05T13:07:51.734Z,100688.26
2023-05-05T13:10:10.339Z,100688.27
2023-05-05T13:12:24.451Z,100689.34
2023-05-05T13:14:38.352Z,100689.16
2023-05-05T13:16:51.019Z,100683.98
2023-05-05T13:19:03.596Z,100684.02
2023-05-05T13:21:16.705Z,100680.00
2023-05-05T13:23:29.195Z,100677.98
2023-05-05T13:25:41.775Z,100678.61
2023-05-05T13:27:54.342Z,100673.33
2023-05-05T13:30:07.577Z,100675.84
2023-05-05T13:32:20.106Z,100669.48
2023-05-05T13:34:32.762Z,100668.61
2023-05-05T13:36:45.359Z,100666.20
2023-05-05T13:38:57.955Z,100663.19
2023-05-05T13:41:10.559Z,100661.58
2023-05-05T13:43:23.201Z,100662.98
2023-05-05T13:45:35.770Z,100661.42
2023-05-05T13:47:48.283Z,100655.28
2023-05-05T13:50:00.823Z,100652.13
2023-05-05T13:52:13.502Z,100650.68
2023-05-05T13:54:26.176Z,100653.27
2023-05-05T13:56:38.716Z,100651.21
2023-05-05T13:58:51.896Z,100649.86
2023-05-05T14:01:04.565Z,100644.91
2023-05-05T14:03:17.143Z,100645.91
2023-05-05T14:05:29.705Z,100638.11
2023-05-05T14:07:42.503Z,100632.56
2023-05-05T14:09:55.030Z,100630.02
2023-05-05T14:12:07.688Z,100630.45
2023-05-05T14:14:20.253Z,100628.73
2023-05-05T14:16:32.930Z,100628.90
2023-05-05T14:18:45.591Z,100622.23
2023-05-05T14:20:58.117Z,100622.42
2023-05-05T14:23:10.662Z,100624.74
2023-05-05T14:25:23.408Z,100625.10
2023-05-05T14:27:35.926Z,100627.87
2023-05-05T14:29:48.535Z,100631.50
2023-05-05T14:32:01.080Z,100626.60
2023-05-05T14:34:13.696Z,100625.40
2023-05-05T14:36:26.813Z,100626.55
2023-05-05T14:38:39.470Z,100627.54
2023-05-05T14:40:52.100Z,100622.92
2023-05-05T14:43:04.673Z,100620.00
2023-05-05T14:45:17.872Z,100614.05
2023-05-05T14:47:30.445Z,100613.34
2023-05-05T14:49:43.038Z,100614.35
2023-05-05T14:51:56.881Z,100616.09
2023-05-05T14:54:17.231Z,100617.02
2023-05-05T14:56:37.103Z,100620.02
2023-05-05T14:58:50.222Z,100622.84
2023-05-05T15:01:02.836Z,100623.23
2023-05-05T15:03:15.851Z,100623.08
2023-05-05T15:05:29.647Z,100622.05
2023-05-05T15:07:42.181Z,100618.83
2023-05-05T15:09:56.464Z,100617.55
2023-05-05T15:12:08.962Z,100612.27
2023-05-05T15:14:21.465Z,100613.22
2023-05-05T15:16:35.222Z,100610.83
2023-05-05T15:18:48.042Z,100605.73
2023-05-05T15:21:00.579Z,100604.85
2023-05-05T15:23:13.138Z,100602.74
2023-05-05T15:25:25.940Z,100597.89
2023-05-05T15:27:39.464Z,100600.97
2023-05-05T15:29:52.006Z,100602.84
2023-05-05T15:32:04.927Z,100602.43
2023-05-05T15:34:17.559Z,100602.46
2023-05-05T15:36:30.196Z,100604.83
2023-05-05T15:38:43.286Z,100600.58
2023-05-05T15:40:55.817Z,100601.18
2023-05-05T15:43:08.958Z,100603.67
2023-05-05T15:45:21.519Z,100602.04
2023-05-05T15:47:34.092Z,100600.58
2023-05-05T15:49:46.710Z,100602.88
2023-05-05T15:51:59.289Z,100602.02
2023-05-05T15:54:12.024Z,100599.27
2023-05-05T15:56:27.264Z,100599.55
2023-05-05T15:58:39.804Z,100596.55
2023-05-05T16:00:52.352Z,100594.83
2023-05-05T16:03:04.987Z,100591.42
2023-05-05T16:05:17.720Z,100590.16
2023-05-05T16:07:31.965Z,100591.02
2023-05-05T16:09:44.500Z,100592.20
2023-05-05T16:11:57.072Z,100589.22
2023-05-05T16:14:09.712Z,100589.04
2023-05-05T16:16:22.452Z,100586.78
2023-05-05T16:18:35.006Z,100586.70
2023-05-05T16:20:47.516Z,100583.96
2023-05-05T16:23:00.040Z,100581.06
2023-05-05T16:25:12.642Z,100579.25
2023-05-05T16:27:27.248Z,100577.44
2023-05-05T16:29:39.963Z,100581.08
2023-05-05T16:31:52.691Z,100581.90
2023-05-05T16:34:05.407Z,100583.15
2023-05-05T16:36:17.962Z,100578.62
2023-05-05T16:38:31.039Z,100576.10
2023-05-05T16:40:43.935Z,100573.35
2023-05-05T16:42:56.475Z,100575.36
2023-05-05T16:45:09.736Z,100578.65
2023-05-05T16:47:22.474Z,100576.27
2023-05-05T16:49:34.999Z,100581.70
2023-05-05T16:51:47.550Z,100580.14
2023-05-05T16:54:00.052Z,100579.78
2023-05-05T16:56:13.115Z,100581.14
2023-05-05T16:58:25.731Z,100578.36
2023-05-05T17:00:38.591Z,100582.55
2023-05-05T17:02:51.200Z,100581.73
2023-05-05T17:05:03.955Z,100582.59
2023-05-05T17:07:16.482Z,100586.60
2023-05-05T17:09:29.003Z,100586.98
2023-05-05T17:11:41.780Z,100585.92
2023-05-05T17:13:54.345Z,100584.00
2023-05-05T17:16:06.962Z,100587.70
2023-05-05T17:18:25.634Z,100591.86
2023-05-05T17:20:38.306Z,100596.45
2023-05-05T17:22:50.882Z,100595.46
2023-05-05T17:25:03.609Z,100595.18
2023-05-05T17:27:16.701Z,100595.80
2023-05-05T17:29:29.250Z,100597.98
2023-05-05T17:31:42.133Z,100601.88
2023-05-05T17:33:54.999Z,100605.84
2023-05-05T17:36:08.116Z,100608.15
2023-05-05T17:38:20.699Z,100609.13
2023-05-05T17:40:33.218Z,100605.86
2023-05-05T17:42:45.974Z,100606.92
2023-05-05T17:44:59.777Z,100607.48
2023-05-05T17:47:12.435Z,100602.63
2023-05-05T17:49:25.512Z,100601.41
2023-05-05T17:51:38.120Z,100606.77
2023-05-05T17:53:50.687Z,100607.38
2023-05-05T17:56:03.314Z,100606.80
2023-05-05T17:58:15.840Z,100605.14
2023-05-05T18:00:28.666Z,100604.40
2023-05-05T18:02:41.950Z,100607.58
2023-05-05T18:04:54.562Z,100607.31
2023-05-05T18:07:07.625Z,100612.05
2023-05-05T18:09:20.737Z,100607.07
2023-05-05T18:11:33.991Z,100609.52
2023-05-05T18:13:47.104Z,100611.73
2023-05-05T18:15:59.901Z,100615.77
2023-05-05T18:18:12.745Z,100617.92
2023-05-05T18:20:25.342Z,100621.86
2023-05-05T18:22:37.947Z,100623.98
2023-05-05T18:24:50.757Z,100627.00
2023-05-05T18:27:05.774Z,100638.67
2023-05-05T18:29:20.119Z,100646.53
2023-05-05T18:31:32.666Z,100652.48
2023-05-05T18:33:47.577Z,100657.92
2023-05-05T18:36:03.177Z,100662.67
2023-05-05T18:38:15.797Z,100663.83
2023-05-05T18:40:28.405Z,100665.60
2023-05-05T18:42:41.682Z,100665.47
2023-05-05T18:44:54.431Z,100668.50
2023-05-05T18:47:07.492Z,100673.10
2023-05-05T18:49:20.068Z,100674.83
2023-05-05T18:51:32.649Z,100674.02
2023-05-05T18:53:45.173Z,100672.92
2023-05-05T18:55:59.056Z,100669.09
2023-05-05T18:58:11.578Z,100674.32
2023-05-05T19:00:24.491Z,100674.55
2023-05-05T19:02:37.116Z,100677.23
2023-05-05T19:04:49.830Z,100677.19
2023-05-05T19:07:02.434Z,100677.80
2023-05-05T19:09:15.002Z,100673.80
2023-05-05T19:11:27.585Z,100675.33
2023-05-05T19:13:40.657Z,100675.19
2023-05-05T19:15:54.640Z,100674.45
2023-05-05T19:18:07.377Z,100668.81
2023-05-05T19:20:20.897Z,100668.95
2023-05-05T19:22:33.485Z,100669.83
2023-05-05T19:24:46.017Z,100670.64
2023-05-05T19:26:58.712Z,100672.42
2023-05-05T19:29:11.680Z,100672.33
2023-05-05T19:31:27.563Z,100676.77
2023-05-05T19:33:45.044Z,100670.45
2023-05-05T19:35:57.586Z,100673.23
2023-05-05T19:38:10.824Z,100669.66
2023-05-05T19:40:24.853Z,100669.20
2023-05-05T19:42:37.547Z,100669.94
2023-05-05T19:44:50.145Z,100669.81
2023-05-05T19:47:02.721Z,100667.55
2023-05-05T19:49:15.269Z,100667.06
2023-05-05T19:51:27.881Z,100666.06
2023-05-05T19:53:42.658Z,100667.67
2023-05-05T19:55:55.600Z,100670.54
2023-05-05T19:58:08.066Z,100672.09
2023-05-05T20:00:20.739Z,100671.69
2023-05-05T20:02:36.167Z,100671.10
2023-05-05T20:04:49.582Z,100672.98
2023-05-05T20:07:02.176Z,100672.06
2023-05-05T20:09:15.038Z,100666.63
2023-05-05T20:11:28.081Z,100665.66
2023-05-05T20:13:40.727Z,100665.08
2023-05-05T20:15:53.438Z,100662.89
2023-05-05T20:18:05.995Z,100661.58
2023-05-05T20:20:21.830Z,100656.58
2023-05-05T20:22:34.363Z,100653.84
2023-05-05T20:24:46.891Z,100654.52
2023-05-05T20:26:59.508Z,100656.62
2023-05-05T20:29:12.779Z,100655.13
2023-05-05T20:31:25.426Z,100649.91
2023-05-05T20:33:38.038Z,100647.29
2023-05-05T20:35:50.606Z,100641.52
2023-05-05T20:38:04.543Z,100638.98
2023-05-05T20:40:17.429Z,100634.80
2023-05-05T20:42:30.003Z,100632.08
2023-05-05T20:44:42.780Z,100630.16
2023-05-05T20:46:55.462Z,100626.23
2023-05-05T20:49:08.084Z,100625.38
2023-05-05T20:51:20.687Z,100634.58
2023-05-05T20:53:33.357Z,100636.47
2023-05-05T20:55:45.995Z,100640.58
2023-05-05T20:57:58.554Z,100638.46
2023-05-05T21:00:11.480Z,100636.06
2023-05-05T21:02:24.295Z,100633.24
2023-05-05T21:04:36.967Z,100630.06
2023-05-05T21:06:49.622Z,100633.58
2023-05-05T21:09:02.205Z,100636.60
2023-05-05T21:11:15.058Z,100631.95
2023-05-05T21:13:27.892Z,100635.88
2023-05-05T21:15:40.570Z,100632.73
2023-05-05T21:17:53.276Z,100631.71
2023-05-05T21:20:06.832Z,100624.79
2023-05-05T21:22:20.536Z,100626.13
2023-05-05T21:24:33.103Z,100626.30
2023-05-05T21:26:45.809Z,100621.80
2023-05-05T21:28:58.477Z,100621.25
2023-05-05T21:31:21.814Z,100616.37
2023-05-05T21:33:35.041Z,100615.02
2023-05-05T21:35:47.675Z,100616.30
2023-05-05T21:38:00.514Z,100616.44
2023-05-05T21:40:13.887Z,100618.56
2023-05-05T21:42:29.401Z,100612.39
2023-05-05T21:44:42.014Z,100615.79
2023-05-05T21:46:55.019Z,100616.37
2023-05-05T21:49:15.563Z,100619.41
2023-05-05T21:51:28.202Z,100618.56
2023-05-05T21:53:40.810Z,100622.08
2023-05-05T21:55:53.344Z,100621.73
2023-05-05T21:58:05.906Z,100618.48
2023-05-05T22:00:18.627Z,100620.12
2023-05-05T22:02:33.250Z,100623.32
2023-05-05T22:04:48.525Z,100624.14
2023-05-05T22:07:01.366Z,100626.56
2023-05-05T22:09:13.999Z,100629.95
2023-05-05T22:11:26.677Z,100628.81
2023-05-05T22:13:39.304Z,100629.82
2023-05-05T22:15:51.975Z,100624.73
2023-05-05T22:18:04.646Z,100615.48
2023-05-05T22:20:17.262Z,100612.43
2023-05-05T22:22:29.851Z,100612.41
2023-05-05T22:24:42.387Z,100615.17
2023-05-05T22:26:56.706Z,100612.57
2023-05-05T22:29:09.975Z,100611.28
2023-05-05T22:31:22.615Z,100609.31
2023-05-05T22:33:36.060Z,100609.05
2023-05-05T22:35:48.633Z,100609.03
2023-05-05T22:38:01.484Z,100604.91
2023-05-05T22:40:14.093Z,100602.48
2023-05-05T22:42:26.776Z,100599.55
2023-05-05T22:44:39.338Z,100601.95
2023-05-05T22:46:51.919Z,100603.59
2023-05-05T22:49:04.559Z,100600.75
2023-05-05T22:51:17.746Z,100604.03
2023-05-05T22:53:30.298Z,100603.83
2023-05-05T22:55:42.880Z,100603.50
2023-05-05T22:57:55.497Z,100603.66
2023-05-05T23:00:09.173Z,100608.70
2023-05-05T23:02:21.860Z,100609.86
2023-05-05T23:04:34.476Z,100612.13
2023-05-05T23:06:47.103Z,100611.08
2023-05-05T23:08:59.638Z,100609.48
2023-05-05T23:11:12.204Z,100607.75
2023-05-05T23:13:26.457Z,100602.77
2023-05-05T23:15:39.025Z,100605.38
2023-05-05T23:17:51.666Z,100596.02
2023-05-05T23:20:04.879Z,100596.09
2023-05-05T23:22:17.540Z,100597.02
2023-05-05T23:24:30.845Z,100593.69
2023-05-05T23:26:43.384Z,100590.64
2023-05-05T23:28:56.236Z,100585.21
2023-05-05T23:31:09.121Z,100582.52
2023-05-05T23:33:21.857Z,100579.43
2023-05-05T23:35:34.479Z,100581.77
2023-05-05T23:37:47.144Z,100574.14
2023-05-05T23:40:01.906Z,100575.65
2023-05-05T23:42:14.414Z,100570.80
2023-05-05T23:44:27.629Z,100567.39
2023-05-05T23:46:40.348Z,100568.33
2023-05-05T23:48:53.269Z,100563.48
2023-05-05T23:51:05.849Z,100559.61
2023-05-05T23:53:18.548Z,100556.73
2023-05-05T23:55:31.104Z,100551.73
2023-05-05T23:57:43.789Z,100548.06
2023-05-05T23:59:56.357Z,100541.95
